createdAt,value
2022-08-01T00:00:53.232Z,100269.56
2022-08-01T00:03:55.867Z,100274.75
2022-08-01T00:06:58.242Z,100267.16
2022-08-01T00:10:02.604Z,100274.66
2022-08-01T00:13:04.999Z,100270.44
2022-08-01T00:16:07.741Z,100267.91
2022-08-01T00:19:10.027Z,100270.31
2022-08-01T00:22:12.634Z,100265.47
2022-08-01T00:25:15.063Z,100269.41
2022-08-01T00:28:17.656Z,100260.09
2022-08-01T00:31:21.362Z,100261.13
2022-08-01T00:34:24.036Z,100251.47
2022-08-01T00:37:26.350Z,100247.75
2022-08-01T00:40:29.216Z,100248.00
2022-08-01T00:43:31.560Z,100250.72
2022-08-01T00:46:34.467Z,100250.84
2022-08-01T00:49:36.913Z,100249.22
2022-08-01T00:52:40.784Z,100256.56
2022-08-01T00:55:43.559Z,100260.03
2022-08-01T00:58:46.228Z,100254.50
2022-08-01T01:01:50.009Z,100255.81
2022-08-01T01:04:52.751Z,100255.50
2022-08-01T01:07:57.833Z,100260.75
2022-08-01T01:11:04.632Z,100254.91
2022-08-01T01:14:11.070Z,100254.34
2022-08-01T01:17:15.988Z,100247.78
2022-08-01T01:20:19.261Z,100256.22
2022-08-01T01:23:37.078Z,100248.06
2022-08-01T01:26:58.275Z,100254.56
2022-08-01T01:30:01.833Z,100248.00
2022-08-01T01:33:06.737Z,100245.75
2022-08-01T01:36:11.443Z,100246.78
2022-08-01T01:39:15.216Z,100235.72
2022-08-01T01:42:18.472Z,100240.41
2022-08-01T01:45:22.428Z,100237.97
2022-08-01T01:48:26.128Z,100236.19
2022-08-01T01:51:29.642Z,100232.00
2022-08-01T01:54:34.273Z,100236.75
2022-08-01T01:57:39.025Z,100235.12
2022-08-01T02:00:43.359Z,100232.12
2022-08-01T02:03:50.699Z,100225.94
2022-08-01T02:06:53.602Z,100221.69
2022-08-01T02:09:56.997Z,100224.44
2022-08-01T02:13:00.787Z,100223.84
2022-08-01T02:16:04.056Z,100220.22
2022-08-01T02:19:07.219Z,100209.31
2022-08-01T02:25:23.583Z,100221.81
2022-08-01T02:28:30.539Z,100219.87
2022-08-01T02:31:34.993Z,100221.22
2022-08-01T02:34:37.242Z,100210.81
2022-08-01T02:37:41.675Z,100220.03
2022-08-01T02:40:49.842Z,100212.78
2022-08-01T02:43:53.760Z,100208.47
2022-08-01T02:46:58.630Z,100210.94
2022-08-01T02:50:01.807Z,100208.78
2022-08-01T02:53:04.995Z,100207.72
2022-08-01T02:56:09.021Z,100210.53
2022-08-01T02:59:15.276Z,100215.78
2022-08-01T03:02:18.334Z,100214.31
2022-08-01T03:05:21.033Z,100212.25
2022-08-01T03:08:24.850Z,100213.06
2022-08-01T03:11:29.355Z,100207.38
2022-08-01T03:14:35.378Z,100214.50
2022-08-01T03:17:38.811Z,100220.34
2022-08-01T03:20:42.682Z,100218.19
2022-08-01T03:23:46.408Z,100210.19
2022-08-01T03:26:49.695Z,100207.28
2022-08-01T03:29:52.955Z,100211.97
2022-08-01T03:32:56.481Z,100211.62
2022-08-01T03:36:01.163Z,100211.13
2022-08-01T03:39:04.756Z,100214.03
2022-08-01T03:42:11.059Z,100210.16
2022-08-01T03:45:24.359Z,100204.16
2022-08-01T03:48:29.480Z,100212.22
2022-08-01T03:51:33.019Z,100213.75
2022-08-01T03:54:37.411Z,100217.88
2022-08-01T03:57:40.220Z,100227.81
2022-08-01T04:00:42.911Z,100220.94
2022-08-01T04:03:45.954Z,100223.41
2022-08-01T04:06:51.458Z,100231.41
2022-08-01T04:09:54.287Z,100233.47
2022-08-01T04:12:56.659Z,100235.25
2022-08-01T04:15:59.364Z,100234.19
2022-08-01T04:19:01.870Z,100232.19
2022-08-01T04:22:05.763Z,100234.34
2022-08-01T04:25:10.356Z,100229.63
2022-08-01T04:28:17.293Z,100239.00
2022-08-01T04:31:20.039Z,100237.50
2022-08-01T04:34:23.973Z,100232.03
2022-08-01T04:37:26.802Z,100226.78
2022-08-01T04:40:30.434Z,100226.72
2022-08-01T04:43:32.830Z,100232.53
2022-08-01T04:46:35.926Z,100237.22
2022-08-01T04:49:49.153Z,100240.97
2022-08-01T04:52:52.611Z,100233.50
2022-08-01T04:55:54.967Z,100238.13
2022-08-01T04:59:19.796Z,100240.81
2022-08-01T05:02:22.496Z,100240.91
2022-08-01T05:05:27.219Z,100240.94
2022-08-01T05:08:29.581Z,100239.69
2022-08-01T05:11:32.231Z,100236.47
2022-08-01T05:14:34.635Z,100234.47
2022-08-01T05:17:37.472Z,100238.38
2022-08-01T05:20:39.905Z,100239.28
2022-08-01T05:23:43.641Z,100246.38
2022-08-01T05:26:45.997Z,100244.34
2022-08-01T05:29:50.854Z,100242.81
2022-08-01T05:32:53.751Z,100250.91
2022-08-01T05:35:56.294Z,100244.41
2022-08-01T05:38:58.614Z,100253.87
2022-08-01T05:42:01.209Z,100246.12
2022-08-01T05:45:03.668Z,100258.13
2022-08-01T05:48:06.542Z,100253.00
2022-08-01T05:51:08.862Z,100240.69
2022-08-01T05:54:11.511Z,100248.09
2022-08-01T05:57:13.848Z,100258.59
2022-08-01T06:00:18.135Z,100251.25
2022-08-01T06:03:20.839Z,100248.09
2022-08-01T06:06:25.523Z,100243.72
2022-08-01T06:09:28.277Z,100246.87
2022-08-01T06:12:35.614Z,100243.50
2022-08-01T06:15:38.533Z,100245.53
2022-08-01T06:18:41.160Z,100248.38
2022-08-01T06:21:43.771Z,100250.47
2022-08-01T06:24:46.086Z,100251.28
2022-08-01T06:27:49.072Z,100250.44
2022-08-01T06:30:51.624Z,100249.75
2022-08-01T06:33:54.170Z,100244.13
2022-08-01T06:36:56.481Z,100249.84
2022-08-01T06:40:14.771Z,100251.41
2022-08-01T06:43:20.345Z,100252.62
2022-08-01T06:46:22.935Z,100253.75
2022-08-01T06:49:25.679Z,100247.66
2022-08-01T06:52:28.248Z,100256.72
2022-08-01T06:55:30.674Z,100253.81
2022-08-01T06:58:35.360Z,100265.31
2022-08-01T07:01:37.945Z,100254.00
2022-08-01T07:04:40.640Z,100252.88
2022-08-01T07:07:43.063Z,100256.41
2022-08-01T07:10:46.680Z,100245.00
2022-08-01T07:13:49.218Z,100236.44
2022-08-01T07:16:51.905Z,100231.34
2022-08-01T07:19:55.517Z,100232.84
2022-08-01T07:23:00.479Z,100221.38
2022-08-01T07:26:04.630Z,100227.66
2022-08-01T07:29:07.239Z,100229.34
2022-08-01T07:32:09.735Z,100229.72
2022-08-01T07:35:12.345Z,100216.84
2022-08-01T07:38:17.780Z,100231.41
2022-08-01T07:41:20.424Z,100232.00
2022-08-01T07:44:22.690Z,100225.31
2022-08-01T07:47:26.216Z,100226.75
2022-08-01T07:50:28.770Z,100215.41
2022-08-01T07:53:36.200Z,100225.47
2022-08-01T07:56:38.759Z,100218.88
2022-08-01T07:59:41.383Z,100220.09
2022-08-01T08:02:43.804Z,100217.25
2022-08-01T08:05:58.346Z,100209.19
2022-08-01T08:09:02.641Z,100206.37
2022-08-01T08:12:06.141Z,100216.53
2022-08-01T08:15:08.840Z,100217.47
2022-08-01T08:18:11.783Z,100212.44
2022-08-01T08:21:14.245Z,100213.16
2022-08-01T08:24:26.337Z,100210.69
2022-08-01T08:27:29.230Z,100210.06
2022-08-01T08:30:32.063Z,100213.87
2022-08-01T08:33:34.364Z,100205.97
2022-08-01T08:36:36.957Z,100232.25
2022-08-01T08:39:41.537Z,100227.66
2022-08-01T08:42:45.282Z,100231.72
2022-08-01T08:45:58.755Z,100235.53
2022-08-01T08:49:04.629Z,100231.53
2022-08-01T08:52:10.654Z,100247.81
2022-08-01T08:55:15.634Z,100249.84
2022-08-01T08:58:19.059Z,100241.56
2022-08-01T09:01:22.834Z,100248.62
2022-08-01T09:04:26.641Z,100244.06
2022-08-01T09:07:29.521Z,100249.94
2022-08-01T09:10:32.281Z,100241.03
2022-08-01T09:13:37.699Z,100244.53
2022-08-01T09:16:48.998Z,100237.75
2022-08-01T09:19:54.504Z,100246.84
2022-08-01T09:22:57.170Z,100252.44
2022-08-01T09:25:59.987Z,100243.06
2022-08-01T09:29:04.036Z,100242.59
2022-08-01T09:32:14.013Z,100242.91
2022-08-01T09:35:43.415Z,100243.63
2022-08-01T09:38:50.850Z,100240.72
2022-08-01T09:41:54.889Z,100238.47
2022-08-01T09:44:58.926Z,100230.31
2022-08-01T09:48:06.869Z,100238.50
2022-08-01T09:51:14.005Z,100234.78
2022-08-01T09:54:36.393Z,100232.25
2022-08-01T09:57:39.696Z,100228.16
2022-08-01T10:00:45.628Z,100230.47
2022-08-01T10:04:04.912Z,100233.03
2022-08-01T10:07:08.797Z,100228.66
2022-08-01T10:10:12.653Z,100242.38
2022-08-01T10:13:16.706Z,100239.12
2022-08-01T10:16:20.137Z,100226.97
2022-08-01T10:19:24.594Z,100238.34
2022-08-01T10:22:28.474Z,100236.63
2022-08-01T10:25:42.417Z,100227.84
2022-08-01T10:28:49.000Z,100233.47
2022-08-01T10:31:52.802Z,100230.87
2022-08-01T10:34:56.009Z,100237.81
2022-08-01T10:37:59.138Z,100226.84
2022-08-01T10:41:03.147Z,100224.25
2022-08-01T10:44:09.420Z,100223.97
2022-08-01T10:47:13.328Z,100224.34
2022-08-01T10:50:25.805Z,100221.50
2022-08-01T10:53:31.504Z,100213.00
2022-08-01T10:56:45.920Z,100213.69
2022-08-01T11:00:01.015Z,100207.91
2022-08-01T11:03:04.873Z,100211.41
2022-08-01T11:06:08.307Z,100206.50
2022-08-01T11:09:16.554Z,100205.72
2022-08-01T11:12:22.906Z,100197.84
2022-08-01T11:15:29.838Z,100204.22
2022-08-01T11:18:37.604Z,100203.66
2022-08-01T11:21:59.305Z,100195.84
2022-08-01T11:25:02.815Z,100196.84
2022-08-01T11:28:15.295Z,100192.91
2022-08-01T11:31:21.164Z,100190.78
2022-08-01T11:34:43.344Z,100194.69
2022-08-01T11:37:46.111Z,100188.16
2022-08-01T11:40:50.854Z,100179.09
2022-08-01T11:44:02.224Z,100185.87
2022-08-01T11:47:08.698Z,100173.44
2022-08-01T11:50:35.800Z,100175.63
2022-08-01T11:53:46.311Z,100175.38
2022-08-01T11:56:48.971Z,100181.97
2022-08-01T12:00:02.796Z,100176.50
2022-08-01T12:03:21.545Z,100178.09
2022-08-01T12:06:35.965Z,100171.12
2022-08-01T12:09:38.415Z,100173.22
2022-08-01T12:13:10.768Z,100166.81
2022-08-01T12:16:13.576Z,100170.81
2022-08-01T12:19:23.277Z,100166.59
2022-08-01T12:22:26.595Z,100171.78
2022-08-01T12:25:29.327Z,100162.22
2022-08-01T12:28:39.577Z,100170.69
2022-08-01T12:31:42.299Z,100163.06
2022-08-01T12:34:44.591Z,100172.66
2022-08-01T12:37:48.398Z,100163.03
2022-08-01T12:40:53.638Z,100163.25
2022-08-01T12:43:57.459Z,100160.03
2022-08-01T12:47:01.676Z,100167.56
2022-08-01T12:50:06.515Z,100167.91
2022-08-01T12:53:10.468Z,100155.16
2022-08-01T12:56:31.598Z,100146.81
2022-08-01T12:59:33.922Z,100145.53
2022-08-01T13:02:36.933Z,100143.03
2022-08-01T13:05:45.273Z,100149.91
2022-08-01T13:08:47.941Z,100139.97
2022-08-01T13:12:02.828Z,100135.87
2022-08-01T13:15:22.692Z,100134.69
2022-08-01T13:18:33.243Z,100142.94
2022-08-01T13:21:54.531Z,100136.84
2022-08-01T13:25:09.870Z,100136.25
2022-08-01T13:28:18.271Z,100135.84
2022-08-01T13:31:20.617Z,100130.72
2022-08-01T13:34:33.631Z,100134.00
2022-08-01T13:37:37.180Z,100134.22
2022-08-01T13:40:41.700Z,100133.09
2022-08-01T13:43:58.317Z,100128.78
2022-08-01T13:47:03.211Z,100122.41
2022-08-01T13:50:19.373Z,100120.75
2022-08-01T13:53:22.196Z,100114.72
2022-08-01T13:56:25.806Z,100111.09
2022-08-01T13:59:28.620Z,100114.81
2022-08-01T14:02:30.936Z,100116.25
2022-08-01T14:05:33.917Z,100107.78
2022-08-01T14:08:36.182Z,100113.62
2022-08-01T14:11:39.022Z,100126.06
2022-08-01T14:14:48.119Z,100116.97
2022-08-01T14:17:50.762Z,100120.88
2022-08-01T14:20:53.850Z,100119.09
2022-08-01T14:23:59.351Z,100119.75
2022-08-01T14:27:03.056Z,100128.91
2022-08-01T14:30:06.906Z,100126.94
2022-08-01T14:33:09.856Z,100122.47
2022-08-01T14:36:30.004Z,100120.75
2022-08-01T14:39:33.744Z,100123.84
2022-08-01T14:42:38.050Z,100127.03
2022-08-01T14:45:40.983Z,100123.16
2022-08-01T14:48:44.023Z,100121.97
2022-08-01T14:51:46.427Z,100136.84
2022-08-01T14:54:49.024Z,100129.22
2022-08-01T14:57:51.867Z,100129.91
2022-08-01T15:00:58.493Z,100131.91
2022-08-01T15:04:01.715Z,100125.09
2022-08-01T15:07:07.141Z,100126.59
2022-08-01T15:10:11.469Z,100130.06
2022-08-01T15:13:14.129Z,100122.09
2022-08-01T15:16:16.397Z,100120.72
2022-08-01T15:19:18.998Z,100123.78
2022-08-01T15:22:22.480Z,100113.88
2022-08-01T15:25:25.071Z,100113.41
2022-08-01T15:28:27.659Z,100116.94
2022-08-01T15:31:30.222Z,100123.88
2022-08-01T15:34:38.447Z,100126.56
2022-08-01T15:37:43.223Z,100123.38
2022-08-01T15:40:46.412Z,100125.03
2022-08-01T15:43:55.731Z,100127.28
2022-08-01T15:46:58.640Z,100132.97
2022-08-01T15:50:02.887Z,100125.16
2022-08-01T15:53:05.749Z,100129.53
2022-08-01T15:56:08.429Z,100123.50
2022-08-01T15:59:10.927Z,100131.16
2022-08-01T16:02:14.590Z,100132.22
2022-08-01T16:05:20.433Z,100125.88
2022-08-01T16:08:23.170Z,100125.88
2022-08-01T16:11:27.680Z,100125.88
2022-08-01T16:14:30.108Z,100136.09
2022-08-01T16:17:32.645Z,100130.41
2022-08-01T16:20:35.307Z,100127.56
2022-08-01T16:23:41.365Z,100138.38
2022-08-01T16:26:43.685Z,100128.87
2022-08-01T16:29:46.350Z,100136.72
2022-08-01T16:32:52.479Z,100144.06
2022-08-01T16:36:03.703Z,100132.69
2022-08-01T16:39:07.716Z,100130.06
2022-08-01T16:42:10.887Z,100131.91
2022-08-01T16:45:14.607Z,100138.44
2022-08-01T16:48:20.179Z,100133.47
2022-08-01T16:51:22.540Z,100133.84
2022-08-01T16:54:26.424Z,100137.56
2022-08-01T16:57:32.963Z,100136.53
2022-08-01T17:00:43.164Z,100137.84
2022-08-01T17:03:52.610Z,100144.41
2022-08-01T17:06:56.748Z,100143.22
2022-08-01T17:10:01.021Z,100142.06
2022-08-01T17:13:03.731Z,100142.56
2022-08-01T17:16:07.194Z,100143.75
2022-08-01T17:19:10.177Z,100141.72
2022-08-01T17:22:13.185Z,100143.53
2022-08-01T17:25:16.244Z,100146.84
2022-08-01T17:28:19.824Z,100153.84
2022-08-01T17:31:22.583Z,100151.19
2022-08-01T17:34:24.972Z,100158.84
2022-08-01T17:37:27.614Z,100162.63
2022-08-01T17:40:40.212Z,100155.03
2022-08-01T17:43:43.670Z,100160.31
2022-08-01T17:46:45.952Z,100162.75
2022-08-01T17:49:56.775Z,100160.50
2022-08-01T17:52:59.557Z,100161.16
2022-08-01T17:56:05.553Z,100165.50
2022-08-01T17:59:08.217Z,100167.97
2022-08-01T18:02:11.092Z,100173.69
2022-08-01T18:05:15.735Z,100168.59
2022-08-01T18:08:18.665Z,100168.69
2022-08-01T18:11:21.729Z,100170.38
2022-08-01T18:14:40.175Z,100170.72
2022-08-01T18:17:43.995Z,100174.03
2022-08-01T18:20:49.444Z,100182.09
2022-08-01T18:23:52.512Z,100182.94
2022-08-01T18:26:55.177Z,100180.25
2022-08-01T18:29:57.994Z,100176.78
2022-08-01T18:33:00.316Z,100190.47
2022-08-01T18:36:04.931Z,100198.59
2022-08-01T18:39:10.403Z,100192.34
2022-08-01T18:42:13.455Z,100191.41
2022-08-01T18:45:15.798Z,100201.66
2022-08-01T18:48:18.807Z,100209.94
2022-08-01T18:51:21.147Z,100213.72
2022-08-01T18:54:25.602Z,100220.91
2022-08-01T18:57:27.959Z,100228.75
2022-08-01T19:00:31.677Z,100228.34
2022-08-01T19:03:34.345Z,100231.28
2022-08-01T19:06:38.897Z,100225.16
2022-08-01T19:09:42.912Z,100230.87
2022-08-01T19:12:45.517Z,100226.25
2022-08-01T19:15:48.663Z,100227.09
2022-08-01T19:18:51.391Z,100239.66
2022-08-01T19:21:54.284Z,100241.63
2022-08-01T19:24:56.937Z,100244.59
2022-08-01T19:27:59.898Z,100248.91
2022-08-01T19:31:03.403Z,100248.47
2022-08-01T19:34:06.005Z,100245.00
2022-08-01T19:37:08.964Z,100252.81
2022-08-01T19:40:12.659Z,100256.59
2022-08-01T19:43:33.346Z,100260.78
2022-08-01T19:46:38.871Z,100258.47
2022-08-01T19:49:41.690Z,100254.00
2022-08-01T19:52:44.673Z,100256.03
2022-08-01T19:55:47.412Z,100264.56
2022-08-01T19:58:52.644Z,100254.63
2022-08-01T20:02:03.814Z,100257.66
2022-08-01T20:05:06.800Z,100263.06
2022-08-01T20:08:09.490Z,100254.22
2022-08-01T20:11:14.652Z,100252.81
2022-08-01T20:14:19.382Z,100263.94
2022-08-01T20:17:23.046Z,100259.16
2022-08-01T20:20:33.330Z,100260.66
2022-08-01T20:23:39.403Z,100259.94
2022-08-01T20:26:43.975Z,100258.94
2022-08-01T20:29:49.613Z,100256.09
2022-08-01T20:32:52.568Z,100253.81
2022-08-01T20:36:02.298Z,100260.72
2022-08-01T20:39:04.707Z,100256.16
2022-08-01T20:42:11.486Z,100260.09
2022-08-01T20:45:18.334Z,100264.41
2022-08-01T20:48:22.125Z,100256.84
2022-08-01T20:51:25.043Z,100268.56
2022-08-01T20:54:29.379Z,100266.50
2022-08-01T20:57:32.335Z,100266.06
2022-08-01T21:00:35.393Z,100274.41
2022-08-01T21:03:42.802Z,100270.44
2022-08-01T21:06:55.847Z,100266.12
2022-08-01T21:09:58.591Z,100278.56
2022-08-01T21:13:01.680Z,100268.47
2022-08-01T21:16:23.043Z,100268.88
2022-08-01T21:19:27.976Z,100278.16
2022-08-01T21:22:36.563Z,100285.28
2022-08-01T21:25:41.614Z,100297.91
2022-08-01T21:28:53.959Z,100289.56
2022-08-01T21:32:12.922Z,100297.84
2022-08-01T21:35:16.622Z,100297.31
2022-08-01T21:38:22.308Z,100298.94
2022-08-01T21:42:04.807Z,100293.06
2022-08-01T21:44:48.648Z,100292.22
2022-08-01T21:47:51.646Z,100288.78
2022-08-01T21:50:58.975Z,100291.72
2022-08-01T21:54:10.130Z,100285.41
2022-08-01T21:57:23.707Z,100294.84
2022-08-01T22:00:26.922Z,100289.16
2022-08-01T22:03:39.941Z,100287.75
2022-08-01T22:06:48.029Z,100292.13
2022-08-01T22:09:51.297Z,100286.12
2022-08-01T22:12:54.017Z,100291.44
2022-08-01T22:15:57.323Z,100280.53
2022-08-01T22:19:03.283Z,100291.00
2022-08-01T22:22:42.465Z,100293.16
2022-08-01T22:25:32.635Z,100292.69
2022-08-01T22:28:36.179Z,100291.13
2022-08-01T22:31:38.847Z,100292.94
2022-08-01T22:34:41.479Z,100290.28
2022-08-01T22:37:57.123Z,100298.50
2022-08-01T22:41:00.083Z,100305.72
2022-08-01T22:44:14.015Z,100304.97
2022-08-01T22:47:26.085Z,100308.72
2022-08-01T22:50:48.863Z,100309.28
2022-08-01T22:54:09.764Z,100310.47
2022-08-01T22:57:15.430Z,100314.09
2022-08-01T23:00:18.371Z,100307.87
2022-08-01T23:03:26.218Z,100312.28
2022-08-01T23:06:40.446Z,100318.63
2022-08-01T23:09:53.911Z,100316.47
2022-08-01T23:12:57.684Z,100322.97
2022-08-01T23:16:01.025Z,100320.34
2022-08-01T23:19:03.919Z,100319.47
2022-08-01T23:22:06.658Z,100321.63
2022-08-01T23:25:11.017Z,100319.34
2022-08-01T23:28:14.076Z,100320.06
2022-08-01T23:31:17.605Z,100314.06
2022-08-01T23:34:20.288Z,100318.75
2022-08-01T23:37:22.949Z,100317.19
2022-08-01T23:40:25.579Z,100316.72
2022-08-01T23:43:28.143Z,100320.06
2022-08-01T23:46:30.380Z,100326.53
2022-08-01T23:49:33.141Z,100318.00
2022-08-01T23:52:55.360Z,100320.75
2022-08-01T23:56:02.736Z,100320.50
2022-08-01T23:59:05.240Z,100323.12
